sensor_id;sensor_type;location;lat;lon;timestamp;temperature;humidity
47338;DHT22;33069;51.970;5.892;2023-02-15T00:01:08;4.80;83.30
47338;DHT22;33069;51.970;5.892;2023-02-15T00:03:35;4.90;83.60
47338;DHT22;33069;51.970;5.892;2023-02-15T00:06:01;5.00;83.70
47338;DHT22;33069;51.970;5.892;2023-02-15T00:08:27;4.90;83.60
47338;DHT22;33069;51.970;5.892;2023-02-15T00:10:53;5.00;83.80
47338;DHT22;33069;51.970;5.892;2023-02-15T00:13:28;5.00;83.70
47338;DHT22;33069;51.970;5.892;2023-02-15T00:15:54;4.80;83.70
47338;DHT22;33069;51.970;5.892;2023-02-15T00:18:19;4.90;84.00
47338;DHT22;33069;51.970;5.892;2023-02-15T00:20:45;5.10;84.20
47338;DHT22;33069;51.970;5.892;2023-02-15T00:23:11;5.10;83.90
47338;DHT22;33069;51.970;5.892;2023-02-15T00:25:36;5.00;83.60
47338;DHT22;33069;51.970;5.892;2023-02-15T00:28:02;4.90;83.80
47338;DHT22;33069;51.970;5.892;2023-02-15T00:30:28;4.80;84.10
47338;DHT22;33069;51.970;5.892;2023-02-15T00:32:53;4.70;84.20
47338;DHT22;33069;51.970;5.892;2023-02-15T00:35:19;4.60;84.30
47338;DHT22;33069;51.970;5.892;2023-02-15T00:37:45;4.80;84.60
47338;DHT22;33069;51.970;5.892;2023-02-15T00:40:11;4.50;84.30
47338;DHT22;33069;51.970;5.892;2023-02-15T00:42:36;4.30;84.50
47338;DHT22;33069;51.970;5.892;2023-02-15T00:45:02;4.30;85.00
47338;DHT22;33069;51.970;5.892;2023-02-15T00:47:28;4.30;85.10
47338;DHT22;33069;51.970;5.892;2023-02-15T00:49:53;4.40;85.30
47338;DHT22;33069;51.970;5.892;2023-02-15T00:52:19;4.30;85.30
47338;DHT22;33069;51.970;5.892;2023-02-15T00:54:45;4.30;85.40
47338;DHT22;33069;51.970;5.892;2023-02-15T00:57:10;4.40;85.40
47338;DHT22;33069;51.970;5.892;2023-02-15T00:59:36;4.30;85.10
47338;DHT22;33069;51.970;5.892;2023-02-15T01:02:02;4.20;85.00
47338;DHT22;33069;51.970;5.892;2023-02-15T01:04:27;4.20;84.90
47338;DHT22;33069;51.970;5.892;2023-02-15T01:06:53;4.00;84.80
47338;DHT22;33069;51.970;5.892;2023-02-15T01:09:19;3.90;84.70
47338;DHT22;33069;51.970;5.892;2023-02-15T01:11:44;3.80;84.70
47338;DHT22;33069;51.970;5.892;2023-02-15T01:14:10;4.00;85.10
47338;DHT22;33069;51.970;5.892;2023-02-15T01:16:36;4.20;85.10
47338;DHT22;33069;51.970;5.892;2023-02-15T01:19:02;4.20;84.80
47338;DHT22;33069;51.970;5.892;2023-02-15T01:21:28;4.40;84.70
47338;DHT22;33069;51.970;5.892;2023-02-15T01:23:54;4.30;84.50
47338;DHT22;33069;51.970;5.892;2023-02-15T01:26:20;4.40;84.60
47338;DHT22;33069;51.970;5.892;2023-02-15T01:28:45;4.20;84.40
47338;DHT22;33069;51.970;5.892;2023-02-15T01:31:14;4.10;84.50
47338;DHT22;33069;51.970;5.892;2023-02-15T01:33:40;4.00;84.60
47338;DHT22;33069;51.970;5.892;2023-02-15T01:36:06;4.10;84.80
47338;DHT22;33069;51.970;5.892;2023-02-15T01:38:33;4.10;84.70
47338;DHT22;33069;51.970;5.892;2023-02-15T01:40:59;4.00;84.70
47338;DHT22;33069;51.970;5.892;2023-02-15T01:43:48;4.00;84.70
47338;DHT22;33069;51.970;5.892;2023-02-15T01:46:15;3.90;84.60
47338;DHT22;33069;51.970;5.892;2023-02-15T01:48:47;4.10;84.90
47338;DHT22;33069;51.970;5.892;2023-02-15T01:51:15;4.10;84.90
47338;DHT22;33069;51.970;5.892;2023-02-15T01:54:01;4.00;84.70
47338;DHT22;33069;51.970;5.892;2023-02-15T01:56:31;3.90;84.80
47338;DHT22;33069;51.970;5.892;2023-02-15T01:59:03;3.90;84.80
47338;DHT22;33069;51.970;5.892;2023-02-15T02:01:29;3.90;84.90
47338;DHT22;33069;51.970;5.892;2023-02-15T02:06:31;3.90;85.10
47338;DHT22;33069;51.970;5.892;2023-02-15T02:08:57;3.90;85.10
47338;DHT22;33069;51.970;5.892;2023-02-15T02:11:23;4.00;85.00
47338;DHT22;33069;51.970;5.892;2023-02-15T02:13:50;3.90;84.80
47338;DHT22;33069;51.970;5.892;2023-02-15T02:27:47;3.70;84.50
47338;DHT22;33069;51.970;5.892;2023-02-15T02:35:32;3.50;84.60
47338;DHT22;33069;51.970;5.892;2023-02-15T02:38:11;3.50;84.70
47338;DHT22;33069;51.970;5.892;2023-02-15T02:40:52;3.60;84.80
47338;DHT22;33069;51.970;5.892;2023-02-15T02:43:33;3.50;84.80
47338;DHT22;33069;51.970;5.892;2023-02-15T02:46:07;3.60;85.00
47338;DHT22;33069;51.970;5.892;2023-02-15T02:48:36;3.60;85.00
47338;DHT22;33069;51.970;5.892;2023-02-15T02:51:02;3.60;84.90
47338;DHT22;33069;51.970;5.892;2023-02-15T02:53:30;3.60;84.90
47338;DHT22;33069;51.970;5.892;2023-02-15T02:56:01;3.50;84.80
47338;DHT22;33069;51.970;5.892;2023-02-15T02:58:38;3.50;84.80
47338;DHT22;33069;51.970;5.892;2023-02-15T03:01:13;3.40;84.70
47338;DHT22;33069;51.970;5.892;2023-02-15T03:03:47;3.30;84.80
47338;DHT22;33069;51.970;5.892;2023-02-15T03:06:25;3.30;84.80
47338;DHT22;33069;51.970;5.892;2023-02-15T03:09:00;3.30;84.80
47338;DHT22;33069;51.970;5.892;2023-02-15T03:11:27;3.40;84.90
47338;DHT22;33069;51.970;5.892;2023-02-15T03:13:53;3.40;84.70
47338;DHT22;33069;51.970;5.892;2023-02-15T03:16:19;3.40;84.60
47338;DHT22;33069;51.970;5.892;2023-02-15T03:19:09;3.30;84.40
47338;DHT22;33069;51.970;5.892;2023-02-15T03:21:43;3.20;84.40
47338;DHT22;33069;51.970;5.892;2023-02-15T03:24:19;3.30;84.70
47338;DHT22;33069;51.970;5.892;2023-02-15T03:26:50;3.10;84.60
47338;DHT22;33069;51.970;5.892;2023-02-15T03:29:19;3.00;84.60
47338;DHT22;33069;51.970;5.892;2023-02-15T03:31:49;2.80;84.60
47338;DHT22;33069;51.970;5.892;2023-02-15T03:34:17;3.00;85.00
47338;DHT22;33069;51.970;5.892;2023-02-15T03:36:55;3.00;85.00
47338;DHT22;33069;51.970;5.892;2023-02-15T03:42:24;3.00;85.00
47338;DHT22;33069;51.970;5.892;2023-02-15T03:47:27;3.00;85.10
47338;DHT22;33069;51.970;5.892;2023-02-15T03:50:13;3.00;85.10
47338;DHT22;33069;51.970;5.892;2023-02-15T03:53:02;3.10;85.30
47338;DHT22;33069;51.970;5.892;2023-02-15T03:55:30;3.10;85.40
47338;DHT22;33069;51.970;5.892;2023-02-15T03:57:56;3.00;85.20
47338;DHT22;33069;51.970;5.892;2023-02-15T04:00:52;2.90;85.20
47338;DHT22;33069;51.970;5.892;2023-02-15T04:03:47;2.70;85.20
47338;DHT22;33069;51.970;5.892;2023-02-15T04:06:15;2.70;85.40
47338;DHT22;33069;51.970;5.892;2023-02-15T04:08:41;2.80;85.60
47338;DHT22;33069;51.970;5.892;2023-02-15T04:11:26;2.70;85.70
47338;DHT22;33069;51.970;5.892;2023-02-15T04:13:51;2.80;85.80
47338;DHT22;33069;51.970;5.892;2023-02-15T04:16:23;2.70;85.80
47338;DHT22;33069;51.970;5.892;2023-02-15T04:18:49;2.90;86.00
47338;DHT22;33069;51.970;5.892;2023-02-15T04:21:33;2.80;85.80
47338;DHT22;33069;51.970;5.892;2023-02-15T04:24:18;2.80;85.80
47338;DHT22;33069;51.970;5.892;2023-02-15T04:27:03;2.80;85.80
47338;DHT22;33069;51.970;5.892;2023-02-15T04:29:29;2.80;85.70
47338;DHT22;33069;51.970;5.892;2023-02-15T04:31:57;2.80;85.80
47338;DHT22;33069;51.970;5.892;2023-02-15T04:34:23;2.70;85.80
47338;DHT22;33069;51.970;5.892;2023-02-15T04:36:49;2.60;85.70
47338;DHT22;33069;51.970;5.892;2023-02-15T04:39:17;2.60;85.90
47338;DHT22;33069;51.970;5.892;2023-02-15T04:41:43;2.70;86.10
47338;DHT22;33069;51.970;5.892;2023-02-15T04:44:09;2.70;85.90
47338;DHT22;33069;51.970;5.892;2023-02-15T04:46:35;2.80;86.00
47338;DHT22;33069;51.970;5.892;2023-02-15T04:49:01;2.70;85.80
47338;DHT22;33069;51.970;5.892;2023-02-15T04:51:27;2.70;85.70
47338;DHT22;33069;51.970;5.892;2023-02-15T04:53:53;2.70;85.80
47338;DHT22;33069;51.970;5.892;2023-02-15T04:56:19;2.60;85.60
47338;DHT22;33069;51.970;5.892;2023-02-15T04:58:45;2.50;85.70
47338;DHT22;33069;51.970;5.892;2023-02-15T05:01:11;2.50;85.60
47338;DHT22;33069;51.970;5.892;2023-02-15T05:03:37;2.50;85.60
47338;DHT22;33069;51.970;5.892;2023-02-15T05:06:03;2.50;85.70
47338;DHT22;33069;51.970;5.892;2023-02-15T05:08:29;2.50;85.60
47338;DHT22;33069;51.970;5.892;2023-02-15T05:10:56;2.40;85.60
47338;DHT22;33069;51.970;5.892;2023-02-15T05:13:21;2.20;85.50
47338;DHT22;33069;51.970;5.892;2023-02-15T05:15:51;2.00;85.50
47338;DHT22;33069;51.970;5.892;2023-02-15T05:18:18;2.20;85.90
47338;DHT22;33069;51.970;5.892;2023-02-15T05:20:44;2.20;86.00
47338;DHT22;33069;51.970;5.892;2023-02-15T05:23:10;2.00;86.00
47338;DHT22;33069;51.970;5.892;2023-02-15T05:25:36;2.10;86.20
47338;DHT22;33069;51.970;5.892;2023-02-15T05:28:22;2.20;86.30
47338;DHT22;33069;51.970;5.892;2023-02-15T05:33:37;2.20;86.30
47338;DHT22;33069;51.970;5.892;2023-02-15T05:36:03;2.30;86.40
47338;DHT22;33069;51.970;5.892;2023-02-15T05:38:30;2.30;86.30
47338;DHT22;33069;51.970;5.892;2023-02-15T05:40:56;2.40;86.20
47338;DHT22;33069;51.970;5.892;2023-02-15T05:43:22;2.20;86.10
47338;DHT22;33069;51.970;5.892;2023-02-15T05:45:50;2.40;86.20
47338;DHT22;33069;51.970;5.892;2023-02-15T05:48:16;2.40;86.10
47338;DHT22;33069;51.970;5.892;2023-02-15T05:50:43;2.30;86.00
47338;DHT22;33069;51.970;5.892;2023-02-15T05:53:08;2.30;86.00
47338;DHT22;33069;51.970;5.892;2023-02-15T05:55:37;2.40;86.00
47338;DHT22;33069;51.970;5.892;2023-02-15T05:58:04;2.20;85.80
47338;DHT22;33069;51.970;5.892;2023-02-15T06:00:29;2.10;85.80
47338;DHT22;33069;51.970;5.892;2023-02-15T06:02:55;2.00;85.90
47338;DHT22;33069;51.970;5.892;2023-02-15T06:05:21;1.90;86.00
47338;DHT22;33069;51.970;5.892;2023-02-15T06:07:46;1.90;86.20
47338;DHT22;33069;51.970;5.892;2023-02-15T06:10:12;2.00;86.40
47338;DHT22;33069;51.970;5.892;2023-02-15T06:12:38;2.00;86.40
47338;DHT22;33069;51.970;5.892;2023-02-15T06:15:04;2.00;86.50
47338;DHT22;33069;51.970;5.892;2023-02-15T06:17:29;2.00;86.50
47338;DHT22;33069;51.970;5.892;2023-02-15T06:19:55;2.10;86.60
47338;DHT22;33069;51.970;5.892;2023-02-15T06:22:21;2.00;86.40
47338;DHT22;33069;51.970;5.892;2023-02-15T06:24:47;1.90;86.40
47338;DHT22;33069;51.970;5.892;2023-02-15T06:27:13;1.90;86.40
47338;DHT22;33069;51.970;5.892;2023-02-15T06:29:38;1.90;86.50
47338;DHT22;33069;51.970;5.892;2023-02-15T06:32:05;2.00;86.60
47338;DHT22;33069;51.970;5.892;2023-02-15T06:34:31;2.10;86.70
47338;DHT22;33069;51.970;5.892;2023-02-15T06:36:56;2.00;86.60
47338;DHT22;33069;51.970;5.892;2023-02-15T06:39:22;1.90;86.50
47338;DHT22;33069;51.970;5.892;2023-02-15T06:41:48;1.80;86.50
47338;DHT22;33069;51.970;5.892;2023-02-15T06:44:13;1.70;86.60
47338;DHT22;33069;51.970;5.892;2023-02-15T06:46:39;1.70;86.70
47338;DHT22;33069;51.970;5.892;2023-02-15T06:49:05;1.90;86.80
47338;DHT22;33069;51.970;5.892;2023-02-15T06:51:31;1.90;86.70
47338;DHT22;33069;51.970;5.892;2023-02-15T06:53:57;1.90;86.80
47338;DHT22;33069;51.970;5.892;2023-02-15T06:56:22;1.80;86.60
47338;DHT22;33069;51.970;5.892;2023-02-15T06:58:48;1.70;86.60
47338;DHT22;33069;51.970;5.892;2023-02-15T07:01:18;1.80;86.90
47338;DHT22;33069;51.970;5.892;2023-02-15T07:03:44;1.90;87.00
47338;DHT22;33069;51.970;5.892;2023-02-15T07:06:09;1.90;87.00
47338;DHT22;33069;51.970;5.892;2023-02-15T07:08:37;2.00;87.00
47338;DHT22;33069;51.970;5.892;2023-02-15T07:11:04;1.90;86.90
47338;DHT22;33069;51.970;5.892;2023-02-15T07:13:48;1.90;86.90
47338;DHT22;33069;51.970;5.892;2023-02-15T07:16:14;2.00;86.90
47338;DHT22;33069;51.970;5.892;2023-02-15T07:18:40;2.00;86.90
47338;DHT22;33069;51.970;5.892;2023-02-15T07:21:06;1.90;86.80
47338;DHT22;33069;51.970;5.892;2023-02-15T07:23:36;1.80;86.80
47338;DHT22;33069;51.970;5.892;2023-02-15T07:26:02;2.00;87.00
47338;DHT22;33069;51.970;5.892;2023-02-15T07:28:29;2.00;87.00
47338;DHT22;33069;51.970;5.892;2023-02-15T07:30:54;2.00;87.00
47338;DHT22;33069;51.970;5.892;2023-02-15T07:33:20;1.90;86.90
47338;DHT22;33069;51.970;5.892;2023-02-15T07:35:56;1.90;86.90
47338;DHT22;33069;51.970;5.892;2023-02-15T07:38:24;2.10;87.00
47338;DHT22;33069;51.970;5.892;2023-02-15T07:40:50;2.20;87.10
47338;DHT22;33069;51.970;5.892;2023-02-15T07:43:16;2.10;86.90
47338;DHT22;33069;51.970;5.892;2023-02-15T07:45:42;2.00;86.90
47338;DHT22;33069;51.970;5.892;2023-02-15T07:48:08;2.00;86.90
47338;DHT22;33069;51.970;5.892;2023-02-15T07:50:34;2.00;87.00
47338;DHT22;33069;51.970;5.892;2023-02-15T07:53:03;2.10;87.10
47338;DHT22;33069;51.970;5.892;2023-02-15T07:55:30;2.00;87.10
47338;DHT22;33069;51.970;5.892;2023-02-15T07:57:55;2.20;87.30
47338;DHT22;33069;51.970;5.892;2023-02-15T08:00:22;2.20;87.20
47338;DHT22;33069;51.970;5.892;2023-02-15T08:02:51;2.10;87.20
47338;DHT22;33069;51.970;5.892;2023-02-15T08:05:37;2.20;87.30
47338;DHT22;33069;51.970;5.892;2023-02-15T08:08:03;2.30;87.40
47338;DHT22;33069;51.970;5.892;2023-02-15T08:10:29;2.40;87.50
47338;DHT22;33069;51.970;5.892;2023-02-15T08:13:13;2.50;87.50
47338;DHT22;33069;51.970;5.892;2023-02-15T08:15:39;2.60;87.60
47338;DHT22;33069;51.970;5.892;2023-02-15T08:18:04;2.40;87.40
47338;DHT22;33069;51.970;5.892;2023-02-15T08:20:30;2.50;87.40
47338;DHT22;33069;51.970;5.892;2023-02-15T08:22:56;2.40;87.40
47338;DHT22;33069;51.970;5.892;2023-02-15T08:25:22;2.60;87.50
47338;DHT22;33069;51.970;5.892;2023-02-15T08:27:47;2.50;87.40
47338;DHT22;33069;51.970;5.892;2023-02-15T08:30:14;2.70;87.60
47338;DHT22;33069;51.970;5.892;2023-02-15T08:32:40;2.70;87.50
47338;DHT22;33069;51.970;5.892;2023-02-15T08:35:06;2.80;87.50
47338;DHT22;33069;51.970;5.892;2023-02-15T08:37:32;3.00;87.40
47338;DHT22;33069;51.970;5.892;2023-02-15T08:39:57;3.20;87.50
47338;DHT22;33069;51.970;5.892;2023-02-15T08:42:23;3.20;87.20
47338;DHT22;33069;51.970;5.892;2023-02-15T08:44:49;3.20;87.00
47338;DHT22;33069;51.970;5.892;2023-02-15T08:47:16;3.20;86.80
47338;DHT22;33069;51.970;5.892;2023-02-15T08:49:42;3.20;86.70
47338;DHT22;33069;51.970;5.892;2023-02-15T08:52:07;3.50;86.70
47338;DHT22;33069;51.970;5.892;2023-02-15T08:54:33;3.50;86.40
47338;DHT22;33069;51.970;5.892;2023-02-15T08:56:59;3.50;86.20
47338;DHT22;33069;51.970;5.892;2023-02-15T08:59:25;3.60;86.00
47338;DHT22;33069;51.970;5.892;2023-02-15T09:01:52;3.50;85.70
47338;DHT22;33069;51.970;5.892;2023-02-15T09:04:19;3.60;85.60
47338;DHT22;33069;51.970;5.892;2023-02-15T09:06:47;3.70;85.60
47338;DHT22;33069;51.970;5.892;2023-02-15T09:09:13;3.90;85.50
47338;DHT22;33069;51.970;5.892;2023-02-15T09:11:41;4.00;85.20
47338;DHT22;33069;51.970;5.892;2023-02-15T09:14:10;4.20;85.00
47338;DHT22;33069;51.970;5.892;2023-02-15T09:16:39;4.30;84.70
47338;DHT22;33069;51.970;5.892;2023-02-15T09:19:06;4.40;84.10
47338;DHT22;33069;51.970;5.892;2023-02-15T09:21:34;4.50;83.70
47338;DHT22;33069;51.970;5.892;2023-02-15T09:24:02;4.60;83.50
47338;DHT22;33069;51.970;5.892;2023-02-15T09:26:30;4.70;83.10
47338;DHT22;33069;51.970;5.892;2023-02-15T09:28:58;4.80;82.90
47338;DHT22;33069;51.970;5.892;2023-02-15T09:31:30;4.90;82.70
47338;DHT22;33069;51.970;5.892;2023-02-15T09:33:57;5.00;82.50
47338;DHT22;33069;51.970;5.892;2023-02-15T09:36:26;5.20;82.20
47338;DHT22;33069;51.970;5.892;2023-02-15T09:38:59;5.10;81.70
47338;DHT22;33069;51.970;5.892;2023-02-15T09:44:30;5.40;81.30
47338;DHT22;33069;51.970;5.892;2023-02-15T10:11:19;6.50;77.40
47338;DHT22;33069;51.970;5.892;2023-02-15T10:14:37;6.60;77.00
47338;DHT22;33069;51.970;5.892;2023-02-15T10:31:37;7.00;75.70
47338;DHT22;33069;51.970;5.892;2023-02-15T10:34:18;7.30;75.40
47338;DHT22;33069;51.970;5.892;2023-02-15T10:42:39;7.20;73.80
47338;DHT22;33069;51.970;5.892;2023-02-15T10:58:55;7.80;70.40
47338;DHT22;33069;51.970;5.892;2023-02-15T11:01:50;8.00;70.60
47338;DHT22;33069;51.970;5.892;2023-02-15T11:05:14;8.40;69.80
47338;DHT22;33069;51.970;5.892;2023-02-15T11:07:37;8.30;69.80
47338;DHT22;33069;51.970;5.892;2023-02-15T11:12:41;8.60;68.80
47338;DHT22;33069;51.970;5.892;2023-02-15T11:15:19;8.70;67.80
47338;DHT22;33069;51.970;5.892;2023-02-15T11:18:06;8.70;68.20
47338;DHT22;33069;51.970;5.892;2023-02-15T11:20:40;8.90;68.70
47338;DHT22;33069;51.970;5.892;2023-02-15T11:23:15;9.10;67.70
47338;DHT22;33069;51.970;5.892;2023-02-15T11:25:46;9.20;65.60
47338;DHT22;33069;51.970;5.892;2023-02-15T11:28:32;9.50;63.50
47338;DHT22;33069;51.970;5.892;2023-02-15T11:31:09;9.60;63.30
47338;DHT22;33069;51.970;5.892;2023-02-15T11:33:40;9.80;63.30
47338;DHT22;33069;51.970;5.892;2023-02-15T11:38:44;9.80;61.80
47338;DHT22;33069;51.970;5.892;2023-02-15T11:41:14;10.00;62.30
47338;DHT22;33069;51.970;5.892;2023-02-15T11:44:05;10.00;61.20
47338;DHT22;33069;51.970;5.892;2023-02-15T11:46:32;10.10;60.60
47338;DHT22;33069;51.970;5.892;2023-02-15T11:48:58;10.00;61.60
47338;DHT22;33069;51.970;5.892;2023-02-15T11:51:24;10.00;61.20
47338;DHT22;33069;51.970;5.892;2023-02-15T11:53:51;10.10;60.60
47338;DHT22;33069;51.970;5.892;2023-02-15T11:56:19;10.40;60.60
47338;DHT22;33069;51.970;5.892;2023-02-15T11:58:58;10.30;60.50
47338;DHT22;33069;51.970;5.892;2023-02-15T12:01:44;10.10;61.30
47338;DHT22;33069;51.970;5.892;2023-02-15T12:04:24;10.50;61.20
47338;DHT22;33069;51.970;5.892;2023-02-15T12:10:21;10.80;59.70
47338;DHT22;33069;51.970;5.892;2023-02-15T12:12:47;10.60;60.20
47338;DHT22;33069;51.970;5.892;2023-02-15T12:15:14;10.70;60.60
47338;DHT22;33069;51.970;5.892;2023-02-15T12:17:52;10.80;59.90
47338;DHT22;33069;51.970;5.892;2023-02-15T12:22:53;10.80;60.10
47338;DHT22;33069;51.970;5.892;2023-02-15T12:25:43;11.10;60.20
47338;DHT22;33069;51.970;5.892;2023-02-15T12:28:40;11.40;57.70
47338;DHT22;33069;51.970;5.892;2023-02-15T12:31:19;11.40;58.00
47338;DHT22;33069;51.970;5.892;2023-02-15T12:33:46;11.30;58.80
47338;DHT22;33069;51.970;5.892;2023-02-15T12:36:17;11.40;59.00
47338;DHT22;33069;51.970;5.892;2023-02-15T12:39:23;11.40;58.90
47338;DHT22;33069;51.970;5.892;2023-02-15T12:47:06;11.60;58.60
47338;DHT22;33069;51.970;5.892;2023-02-15T12:49:38;12.00;58.00
47338;DHT22;33069;51.970;5.892;2023-02-15T12:54:46;11.70;58.30
47338;DHT22;33069;51.970;5.892;2023-02-15T12:57:32;11.80;58.20
47338;DHT22;33069;51.970;5.892;2023-02-15T13:00:00;12.20;55.60
47338;DHT22;33069;51.970;5.892;2023-02-15T13:02:50;11.90;55.70
47338;DHT22;33069;51.970;5.892;2023-02-15T13:05:37;11.80;56.50
47338;DHT22;33069;51.970;5.892;2023-02-15T13:10:42;12.00;57.10
47338;DHT22;33069;51.970;5.892;2023-02-15T13:13:20;12.30;56.40
47338;DHT22;33069;51.970;5.892;2023-02-15T13:15:50;12.10;56.70
47338;DHT22;33069;51.970;5.892;2023-02-15T13:18:24;12.30;56.00
47338;DHT22;33069;51.970;5.892;2023-02-15T13:20:51;12.30;57.10
47338;DHT22;33069;51.970;5.892;2023-02-15T13:23:29;12.50;56.90
47338;DHT22;33069;51.970;5.892;2023-02-15T13:25:59;12.30;56.00
47338;DHT22;33069;51.970;5.892;2023-02-15T13:28:58;12.30;56.20
47338;DHT22;33069;51.970;5.892;2023-02-15T13:31:28;12.30;56.40
47338;DHT22;33069;51.970;5.892;2023-02-15T13:34:07;12.10;57.20
47338;DHT22;33069;51.970;5.892;2023-02-15T13:53:12;12.50;56.90
47338;DHT22;33069;51.970;5.892;2023-02-15T13:56:06;12.60;57.70
47338;DHT22;33069;51.970;5.892;2023-02-15T14:07:47;12.70;56.80
47338;DHT22;33069;51.970;5.892;2023-02-15T14:10:28;12.90;56.90
47338;DHT22;33069;51.970;5.892;2023-02-15T14:16:04;13.00;55.50
47338;DHT22;33069;51.970;5.892;2023-02-15T14:18:48;12.90;55.20
47338;DHT22;33069;51.970;5.892;2023-02-15T14:21:32;13.10;53.50
47338;DHT22;33069;51.970;5.892;2023-02-15T14:29:38;13.00;54.00
47338;DHT22;33069;51.970;5.892;2023-02-15T14:35:12;12.90;55.30
47338;DHT22;33069;51.970;5.892;2023-02-15T14:49:11;12.80;55.60
47338;DHT22;33069;51.970;5.892;2023-02-15T14:59:55;13.10;53.90
47338;DHT22;33069;51.970;5.892;2023-02-15T15:07:54;12.80;55.40
47338;DHT22;33069;51.970;5.892;2023-02-15T15:12:50;13.30;55.10
47338;DHT22;33069;51.970;5.892;2023-02-15T15:28:06;12.60;56.00
47338;DHT22;33069;51.970;5.892;2023-02-15T15:41:57;12.50;57.30
47338;DHT22;33069;51.970;5.892;2023-02-15T15:44:59;12.50;57.30
47338;DHT22;33069;51.970;5.892;2023-02-15T15:50:32;12.50;57.30
47338;DHT22;33069;51.970;5.892;2023-02-15T15:53:00;12.60;57.30
47338;DHT22;33069;51.970;5.892;2023-02-15T15:55:32;12.60;57.00
47338;DHT22;33069;51.970;5.892;2023-02-15T15:58:06;12.50;56.50
47338;DHT22;33069;51.970;5.892;2023-02-15T16:00:36;12.40;56.80
47338;DHT22;33069;51.970;5.892;2023-02-15T16:03:04;12.30;56.80
47338;DHT22;33069;51.970;5.892;2023-02-15T16:05:40;12.40;57.10
47338;DHT22;33069;51.970;5.892;2023-02-15T16:08:05;12.40;58.00
47338;DHT22;33069;51.970;5.892;2023-02-15T16:10:33;12.30;57.50
47338;DHT22;33069;51.970;5.892;2023-02-15T16:12:59;12.30;57.50
47338;DHT22;33069;51.970;5.892;2023-02-15T16:15:36;12.30;57.60
47338;DHT22;33069;51.970;5.892;2023-02-15T16:18:13;12.40;57.50
47338;DHT22;33069;51.970;5.892;2023-02-15T16:20:40;12.30;57.70
47338;DHT22;33069;51.970;5.892;2023-02-15T16:28:41;12.10;58.60
47338;DHT22;33069;51.970;5.892;2023-02-15T16:31:14;12.20;58.00
47338;DHT22;33069;51.970;5.892;2023-02-15T16:33:42;12.20;57.80
47338;DHT22;33069;51.970;5.892;2023-02-15T16:41:16;12.00;58.30
47338;DHT22;33069;51.970;5.892;2023-02-15T16:43:45;11.80;58.80
47338;DHT22;33069;51.970;5.892;2023-02-15T16:46:24;11.50;59.70
47338;DHT22;33069;51.970;5.892;2023-02-15T16:48:53;11.30;60.50
47338;DHT22;33069;51.970;5.892;2023-02-15T16:51:29;11.20;61.10
47338;DHT22;33069;51.970;5.892;2023-02-15T16:53:57;11.20;61.70
47338;DHT22;33069;51.970;5.892;2023-02-15T16:56:27;11.00;61.90
47338;DHT22;33069;51.970;5.892;2023-02-15T16:58:57;11.00;62.30
47338;DHT22;33069;51.970;5.892;2023-02-15T17:01:28;11.00;62.40
47338;DHT22;33069;51.970;5.892;2023-02-15T17:04:26;11.00;61.60
47338;DHT22;33069;51.970;5.892;2023-02-15T17:07:13;11.10;61.70
47338;DHT22;33069;51.970;5.892;2023-02-15T17:09:53;11.10;61.80
47338;DHT22;33069;51.970;5.892;2023-02-15T17:15:32;11.20;61.80
47338;DHT22;33069;51.970;5.892;2023-02-15T17:18:18;11.10;62.40
47338;DHT22;33069;51.970;5.892;2023-02-15T17:20:46;11.10;61.80
47338;DHT22;33069;51.970;5.892;2023-02-15T17:26:20;11.00;62.00
47338;DHT22;33069;51.970;5.892;2023-02-15T17:28:49;11.00;62.10
47338;DHT22;33069;51.970;5.892;2023-02-15T17:31:17;10.80;62.60
47338;DHT22;33069;51.970;5.892;2023-02-15T17:33:43;10.90;61.80
47338;DHT22;33069;51.970;5.892;2023-02-15T17:36:22;10.70;62.20
47338;DHT22;33069;51.970;5.892;2023-02-15T17:41:30;10.20;63.50
47338;DHT22;33069;51.970;5.892;2023-02-15T17:43:57;10.40;62.90
47338;DHT22;33069;51.970;5.892;2023-02-15T17:46:24;10.70;63.00
47338;DHT22;33069;51.970;5.892;2023-02-15T17:48:52;10.60;62.20
47338;DHT22;33069;51.970;5.892;2023-02-15T17:51:20;10.40;63.30
47338;DHT22;33069;51.970;5.892;2023-02-15T17:53:46;10.40;63.20
47338;DHT22;33069;51.970;5.892;2023-02-15T17:56:32;10.40;63.00
47338;DHT22;33069;51.970;5.892;2023-02-15T17:58:58;10.40;62.90
47338;DHT22;33069;51.970;5.892;2023-02-15T18:01:23;10.20;63.50
47338;DHT22;33069;51.970;5.892;2023-02-15T18:04:13;10.30;63.40
47338;DHT22;33069;51.970;5.892;2023-02-15T18:06:58;10.00;63.70
47338;DHT22;33069;51.970;5.892;2023-02-15T18:09:43;10.10;64.30
47338;DHT22;33069;51.970;5.892;2023-02-15T18:12:28;10.30;63.40
47338;DHT22;33069;51.970;5.892;2023-02-15T18:14:55;10.10;63.50
47338;DHT22;33069;51.970;5.892;2023-02-15T18:17:33;10.20;63.80
47338;DHT22;33069;51.970;5.892;2023-02-15T18:20:05;10.30;63.20
47338;DHT22;33069;51.970;5.892;2023-02-15T18:22:32;10.20;63.40
47338;DHT22;33069;51.970;5.892;2023-02-15T18:24:58;9.90;64.00
47338;DHT22;33069;51.970;5.892;2023-02-15T18:27:24;9.80;64.80
47338;DHT22;33069;51.970;5.892;2023-02-15T18:29:50;10.00;64.20
47338;DHT22;33069;51.970;5.892;2023-02-15T18:32:28;9.80;64.80
47338;DHT22;33069;51.970;5.892;2023-02-15T18:34:57;9.70;64.90
47338;DHT22;33069;51.970;5.892;2023-02-15T18:37:25;9.80;64.90
47338;DHT22;33069;51.970;5.892;2023-02-15T18:39:52;9.60;65.20
47338;DHT22;33069;51.970;5.892;2023-02-15T18:42:31;9.20;66.10
47338;DHT22;33069;51.970;5.892;2023-02-15T18:44:59;9.10;67.20
47338;DHT22;33069;51.970;5.892;2023-02-15T18:47:26;9.30;67.20
47338;DHT22;33069;51.970;5.892;2023-02-15T18:49:51;9.10;66.70
47338;DHT22;33069;51.970;5.892;2023-02-15T18:52:22;8.70;67.30
47338;DHT22;33069;51.970;5.892;2023-02-15T18:54:58;8.80;67.80
47338;DHT22;33069;51.970;5.892;2023-02-15T18:57:26;8.80;68.00
47338;DHT22;33069;51.970;5.892;2023-02-15T18:59:53;8.80;68.40
47338;DHT22;33069;51.970;5.892;2023-02-15T19:02:19;8.90;68.20
47338;DHT22;33069;51.970;5.892;2023-02-15T19:04:45;8.80;68.50
47338;DHT22;33069;51.970;5.892;2023-02-15T19:07:23;9.20;68.00
47338;DHT22;33069;51.970;5.892;2023-02-15T19:09:53;9.10;67.60
47338;DHT22;33069;51.970;5.892;2023-02-15T19:12:20;9.20;67.10
47338;DHT22;33069;51.970;5.892;2023-02-15T19:14:46;9.00;67.40
47338;DHT22;33069;51.970;5.892;2023-02-15T19:17:18;9.00;68.10
47338;DHT22;33069;51.970;5.892;2023-02-15T19:19:45;8.80;67.80
47338;DHT22;33069;51.970;5.892;2023-02-15T19:22:25;8.90;68.10
47338;DHT22;33069;51.970;5.892;2023-02-15T19:24:52;8.80;67.70
47338;DHT22;33069;51.970;5.892;2023-02-15T19:27:28;8.70;68.20
47338;DHT22;33069;51.970;5.892;2023-02-15T19:29:57;8.80;68.40
47338;DHT22;33069;51.970;5.892;2023-02-15T19:32:24;8.80;68.50
47338;DHT22;33069;51.970;5.892;2023-02-15T19:34:50;8.90;68.40
47338;DHT22;33069;51.970;5.892;2023-02-15T19:37:37;8.90;68.00
47338;DHT22;33069;51.970;5.892;2023-02-15T19:40:16;8.70;68.00
47338;DHT22;33069;51.970;5.892;2023-02-15T19:42:43;8.70;68.50
47338;DHT22;33069;51.970;5.892;2023-02-15T19:45:29;8.80;69.10
47338;DHT22;33069;51.970;5.892;2023-02-15T19:47:55;8.80;68.00